createdAt,value
2023-05-13T00:02:49.771Z,6.70
2023-05-13T00:07:52.787Z,7.20
2023-05-13T00:12:55.692Z,6.70
2023-05-13T00:17:58.616Z,7.40
2023-05-13T00:23:03.305Z,6.70
2023-05-13T00:28:06.250Z,5.90
2023-05-13T00:33:09.557Z,11.00
2023-05-13T00:38:12.469Z,8.60
2023-05-13T00:43:15.482Z,7.10
2023-05-13T00:48:18.575Z,7.80
2023-05-13T00:53:21.599Z,7.30
2023-05-13T00:58:24.592Z,6.80
2023-05-13T01:03:40.596Z,7.80
2023-05-13T01:08:52.312Z,7.30
2023-05-13T01:14:15.004Z,7.50
2023-05-13T01:19:42.060Z,6.00
2023-05-13T01:24:46.173Z,6.50
2023-05-13T01:29:50.327Z,7.40
2023-05-13T01:34:55.313Z,8.40
2023-05-13T01:39:58.668Z,5.70
2023-05-13T01:45:01.604Z,6.10
2023-05-13T01:50:05.104Z,6.00
2023-05-13T01:55:08.484Z,5.90
2023-05-13T02:00:12.227Z,5.40
2023-05-13T02:05:15.253Z,6.00
2023-05-13T02:10:18.324Z,6.40
2023-05-13T02:15:21.373Z,6.10
2023-05-13T02:20:24.449Z,8.30
2023-05-13T02:25:27.405Z,7.20
2023-05-13T02:30:30.394Z,7.70
2023-05-13T02:35:33.618Z,7.90
2023-05-13T02:40:37.601Z,5.80
2023-05-13T02:45:41.945Z,6.60
2023-05-13T02:50:45.181Z,7.10
2023-05-13T02:55:48.084Z,7.40
2023-05-13T03:00:51.191Z,6.90
2023-05-13T03:05:54.205Z,8.60
2023-05-13T03:10:58.812Z,9.50
2023-05-13T03:16:01.886Z,9.50
2023-05-13T03:21:05.063Z,10.10
2023-05-13T03:26:08.274Z,8.60
2023-05-13T03:31:12.890Z,9.10
2023-05-13T03:36:15.921Z,9.20
2023-05-13T03:41:19.034Z,8.60
2023-05-13T03:46:23.306Z,8.10
2023-05-13T03:51:26.583Z,8.70
2023-05-13T03:56:29.796Z,7.50
2023-05-13T04:01:32.915Z,7.20
2023-05-13T04:06:36.010Z,6.80
2023-05-13T04:11:39.023Z,6.00
2023-05-13T04:16:41.977Z,7.40
2023-05-13T04:21:44.927Z,6.70
2023-05-13T04:26:47.840Z,5.80
2023-05-13T04:31:50.922Z,6.10
2023-05-13T04:36:53.853Z,5.50
2023-05-13T04:41:56.760Z,6.00
2023-05-13T04:46:59.861Z,5.50
2023-05-13T04:52:05.034Z,6.30
2023-05-13T04:57:08.275Z,6.00
2023-05-13T05:02:11.235Z,4.80
2023-05-13T05:07:14.243Z,5.40
2023-05-13T05:12:17.351Z,5.70
2023-05-13T05:17:20.615Z,6.30
2023-05-13T05:22:23.774Z,5.70
2023-05-13T05:27:26.677Z,6.00
2023-05-13T05:32:29.698Z,5.50
2023-05-13T05:37:32.696Z,5.80
2023-05-13T05:42:35.798Z,5.60
2023-05-13T05:47:38.944Z,5.90
2023-05-13T05:52:42.017Z,5.00
2023-05-13T05:57:45.228Z,5.10
2023-05-13T06:02:49.299Z,5.10
2023-05-13T06:07:52.473Z,4.40
2023-05-13T06:12:55.689Z,4.70
2023-05-13T06:17:58.934Z,4.90
2023-05-13T06:23:02.011Z,4.30
2023-05-13T06:28:06.444Z,4.60
2023-05-13T06:33:10.653Z,5.00
2023-05-13T06:38:14.630Z,4.80
2023-05-13T06:43:18.330Z,4.90
2023-05-13T06:48:21.354Z,4.80
2023-05-13T06:53:24.459Z,4.40
2023-05-13T06:58:27.972Z,4.40
2023-05-13T07:03:31.113Z,4.20
2023-05-13T07:08:34.283Z,4.20
2023-05-13T07:13:38.122Z,4.40
2023-05-13T07:18:41.559Z,4.00
2023-05-13T07:23:44.830Z,3.70
2023-05-13T07:28:47.948Z,4.20
2023-05-13T07:33:50.957Z,3.40
2023-05-13T07:38:53.959Z,3.40
2023-05-13T07:43:57.167Z,2.80
2023-05-13T07:49:00.489Z,2.90
2023-05-13T07:54:03.805Z,3.30
2023-05-13T07:59:07.010Z,2.80
2023-05-13T08:04:10.681Z,2.90
2023-05-13T08:09:14.771Z,2.60
2023-05-13T08:14:18.176Z,2.60
2023-05-13T08:19:21.543Z,2.70
2023-05-13T08:24:24.708Z,2.90
2023-05-13T08:29:27.708Z,2.60
2023-05-13T08:34:31.152Z,3.00
2023-05-13T08:39:34.554Z,2.70
2023-05-13T08:44:42.381Z,2.90
2023-05-13T08:49:46.847Z,2.70
2023-05-13T08:54:50.439Z,2.50
2023-05-13T08:59:53.326Z,2.60
2023-05-13T09:05:03.004Z,2.70
2023-05-13T09:10:08.105Z,2.60
2023-05-13T09:15:13.650Z,2.80
2023-05-13T09:20:18.179Z,3.00
2023-05-13T09:25:25.388Z,3.00
2023-05-13T09:30:31.060Z,3.00
2023-05-13T09:35:36.286Z,4.00
2023-05-13T09:40:39.556Z,3.50
2023-05-13T09:45:42.812Z,3.00
2023-05-13T09:50:52.117Z,3.00
2023-05-13T09:55:56.653Z,2.90
2023-05-13T10:01:00.053Z,2.90
2023-05-13T10:06:04.365Z,2.90
2023-05-13T10:11:08.588Z,2.70
2023-05-13T10:16:12.032Z,2.60
2023-05-13T10:21:15.993Z,2.60
2023-05-13T10:26:23.462Z,3.10
2023-05-13T10:31:27.999Z,2.80
2023-05-13T10:36:48.187Z,2.50
2023-05-13T10:42:35.856Z,2.80
2023-05-13T10:47:39.494Z,2.70
2023-05-13T10:52:49.029Z,3.20
2023-05-13T10:58:12.277Z,4.40
2023-05-13T11:03:29.339Z,3.10
2023-05-13T11:08:47.311Z,2.90
2023-05-13T11:13:54.992Z,3.00
2023-05-13T11:18:59.205Z,3.20
2023-05-13T11:24:05.710Z,3.10
2023-05-13T11:29:08.970Z,3.10
2023-05-13T11:34:21.709Z,3.10
2023-05-13T11:39:28.612Z,3.70
2023-05-13T11:44:31.713Z,3.40
2023-05-13T11:49:43.272Z,3.40
2023-05-13T11:54:53.991Z,3.00
2023-05-13T12:00:09.089Z,3.30
2023-05-13T12:05:12.715Z,3.10
2023-05-13T12:10:16.426Z,3.40
2023-05-13T12:15:22.096Z,3.30
2023-05-13T12:20:25.733Z,3.20
2023-05-13T12:25:43.929Z,3.30
2023-05-13T12:31:01.574Z,3.50
2023-05-13T12:36:28.052Z,3.20
2023-05-13T12:41:36.660Z,3.30
2023-05-13T12:46:49.747Z,3.70
2023-05-13T12:51:52.885Z,2.70
2023-05-13T12:56:55.997Z,3.20
2023-05-13T13:01:59.102Z,3.40
2023-05-13T13:07:02.321Z,3.50
2023-05-13T13:12:06.327Z,3.30
2023-05-13T13:17:09.256Z,3.70
2023-05-13T13:22:12.557Z,3.00
2023-05-13T13:27:15.578Z,3.50
2023-05-13T13:32:18.602Z,3.30
2023-05-13T13:37:21.693Z,3.30
2023-05-13T13:42:28.634Z,3.20
2023-05-13T13:47:37.689Z,3.70
2023-05-13T13:52:45.658Z,2.90
2023-05-13T13:57:48.868Z,3.20
2023-05-13T14:02:52.279Z,3.00
2023-05-13T14:07:56.432Z,3.20
2023-05-13T14:12:59.544Z,4.60
2023-05-13T14:18:02.571Z,3.20
2023-05-13T14:23:05.793Z,3.10
2023-05-13T14:28:08.755Z,3.30
2023-05-13T14:33:11.834Z,3.60
2023-05-13T14:38:14.972Z,3.30
2023-05-13T14:43:17.985Z,3.30
2023-05-13T14:48:21.085Z,3.20
2023-05-13T14:53:24.191Z,3.30
2023-05-13T14:58:27.508Z,3.40
2023-05-13T15:03:30.819Z,3.40
2023-05-13T15:08:34.144Z,3.10
2023-05-13T15:13:38.674Z,4.00
2023-05-13T15:18:41.797Z,4.20
2023-05-13T15:23:44.932Z,3.60
2023-05-13T15:28:48.110Z,3.10
2023-05-13T15:33:51.215Z,2.50
2023-05-13T15:38:54.432Z,2.90
2023-05-13T15:43:57.436Z,3.10
2023-05-13T15:49:01.264Z,3.00
2023-05-13T15:54:04.270Z,2.80
2023-05-13T15:59:07.484Z,3.00
2023-05-13T16:04:10.608Z,2.90
2023-05-13T16:09:13.719Z,6.40
2023-05-13T16:14:18.246Z,3.30
2023-05-13T16:19:22.829Z,3.40
2023-05-13T16:24:26.342Z,2.80
2023-05-13T16:29:29.414Z,2.60
2023-05-13T16:34:32.432Z,3.10
2023-05-13T16:39:36.508Z,3.10
2023-05-13T16:44:39.880Z,3.40
2023-05-13T16:49:43.077Z,3.60
2023-05-13T16:54:46.205Z,3.40
2023-05-13T16:59:49.404Z,3.50
2023-05-13T17:04:52.620Z,3.70
2023-05-13T17:09:55.850Z,4.30
2023-05-13T17:14:58.933Z,4.50
2023-05-13T17:20:02.038Z,4.30
2023-05-13T17:25:05.820Z,4.00
2023-05-13T17:30:09.513Z,3.90
2023-05-13T17:35:12.593Z,4.20
2023-05-13T17:40:15.803Z,4.00
2023-05-13T17:45:19.139Z,4.10
2023-05-13T17:50:22.670Z,4.30
2023-05-13T17:55:25.954Z,4.80
2023-05-13T18:00:29.172Z,5.80
2023-05-13T18:05:32.706Z,8.60
2023-05-13T18:10:36.200Z,8.10
2023-05-13T18:15:39.411Z,6.60
2023-05-13T18:20:42.640Z,7.10
2023-05-13T18:25:54.959Z,6.00
2023-05-13T18:30:58.973Z,5.30
2023-05-13T18:36:02.510Z,5.50
2023-05-13T18:41:06.350Z,5.50
2023-05-13T18:46:09.836Z,5.50
2023-05-13T18:51:12.968Z,6.20
2023-05-13T18:56:16.774Z,5.60
2023-05-13T19:01:19.945Z,5.60
2023-05-13T19:06:23.105Z,5.80
2023-05-13T19:11:26.301Z,7.10
2023-05-13T19:16:29.471Z,8.20
2023-05-13T19:21:33.420Z,7.00
2023-05-13T19:26:36.553Z,6.30
2023-05-13T19:31:39.777Z,6.80
2023-05-13T19:36:46.204Z,6.60
2023-05-13T19:41:49.259Z,7.10
2023-05-13T19:46:52.433Z,8.50
2023-05-13T19:51:55.682Z,12.20
2023-05-13T19:56:58.894Z,9.30
2023-05-13T20:02:02.157Z,7.60
2023-05-13T20:07:06.536Z,8.60
2023-05-13T20:12:11.804Z,8.70
2023-05-13T20:17:18.322Z,7.30
2023-05-13T20:22:22.232Z,7.40
2023-05-13T20:27:25.351Z,7.70
2023-05-13T20:32:28.575Z,11.00
2023-05-13T20:37:31.859Z,7.80
2023-05-13T20:42:38.470Z,7.90
2023-05-13T20:47:41.664Z,7.60
2023-05-13T20:52:44.673Z,7.20
2023-05-13T20:57:48.430Z,8.00
2023-05-13T21:02:53.304Z,7.80
2023-05-13T21:07:56.497Z,7.60
2023-05-13T21:12:59.563Z,6.70
2023-05-13T21:18:02.770Z,7.30
2023-05-13T21:23:05.875Z,7.30
2023-05-13T21:28:08.991Z,7.00
2023-05-13T21:33:12.862Z,6.50
2023-05-13T21:38:15.919Z,7.10
2023-05-13T21:43:19.037Z,7.00
2023-05-13T21:48:22.661Z,6.90
2023-05-13T21:53:26.066Z,5.90
2023-05-13T21:58:29.488Z,7.00
2023-05-13T22:03:32.627Z,6.50
2023-05-13T22:08:35.598Z,7.10
2023-05-13T22:13:38.711Z,8.10
2023-05-13T22:18:42.098Z,7.70
2023-05-13T22:23:45.228Z,7.70
2023-05-13T22:28:48.852Z,8.90
2023-05-13T22:33:51.861Z,7.80
2023-05-13T22:38:54.970Z,7.80
2023-05-13T22:43:58.181Z,8.20
2023-05-13T22:49:01.192Z,8.30
2023-05-13T22:54:04.321Z,10.30
2023-05-13T22:59:07.407Z,10.60
2023-05-13T23:04:10.428Z,8.00
2023-05-13T23:09:13.419Z,10.30
2023-05-13T23:14:16.324Z,9.20
2023-05-13T23:19:19.324Z,11.90
2023-05-13T23:24:22.331Z,11.80
2023-05-13T23:29:27.865Z,12.60
2023-05-13T23:34:30.904Z,11.90
2023-05-13T23:39:34.115Z,12.40
2023-05-13T23:44:37.018Z,10.30
2023-05-13T23:49:40.027Z,9.90
2023-05-13T23:54:43.140Z,8.30
2023-05-13T23:59:46.251Z,9.00
